createdAt,value
2022-12-13T00:01:21.894Z,-3.80
2022-12-13T00:03:50.169Z,-3.80
2022-12-13T00:06:18.161Z,-3.90
2022-12-13T00:08:46.065Z,-3.90
2022-12-13T00:11:14.978Z,-3.90
2022-12-13T00:13:43.642Z,-4.00
2022-12-13T00:16:12.659Z,-4.00
2022-12-13T00:18:42.168Z,-4.00
2022-12-13T00:21:12.838Z,-4.10
2022-12-13T00:23:40.749Z,-4.10
2022-12-13T00:26:09.585Z,-4.20
2022-12-13T00:28:37.568Z,-4.20
2022-12-13T00:31:27.353Z,-4.20
2022-12-13T00:33:55.483Z,-4.20
2022-12-13T00:36:23.399Z,-4.30
2022-12-13T00:39:00.619Z,-4.30
2022-12-13T00:41:29.879Z,-4.40
2022-12-13T00:43:57.922Z,-4.40
2022-12-13T00:46:26.280Z,-4.40
2022-12-13T00:48:56.200Z,-4.40
2022-12-13T00:51:24.767Z,-4.50
2022-12-13T00:53:52.761Z,-4.60
2022-12-13T00:56:21.877Z,-4.70
2022-12-13T00:58:52.206Z,-4.70
2022-12-13T01:01:21.370Z,-4.80
2022-12-13T01:03:49.365Z,-4.80
2022-12-13T01:06:20.084Z,-4.90
2022-12-13T01:08:48.403Z,-5.00
2022-12-13T01:11:19.114Z,-5.10
2022-12-13T01:13:47.371Z,-5.10
2022-12-13T01:16:15.360Z,-5.20
2022-12-13T01:18:43.366Z,-5.30
2022-12-13T01:21:12.525Z,-5.30
2022-12-13T01:23:42.343Z,-5.40
2022-12-13T01:26:11.353Z,-5.50
2022-12-13T01:28:39.522Z,-5.60
2022-12-13T01:31:08.534Z,-5.70
2022-12-13T01:33:36.795Z,-5.90
2022-12-13T01:36:06.050Z,-6.00
2022-12-13T01:38:38.116Z,-6.10
2022-12-13T01:41:17.203Z,-6.20
2022-12-13T01:43:53.454Z,-6.30
2022-12-13T01:46:21.561Z,-6.40
2022-12-13T01:48:52.533Z,-6.50
2022-12-13T01:51:22.531Z,-6.70
2022-12-13T01:53:51.278Z,-6.70
2022-12-13T01:56:22.285Z,-6.70
2022-12-13T01:58:52.013Z,-6.80
2022-12-13T02:01:20.169Z,-6.90
2022-12-13T02:03:48.484Z,-7.00
2022-12-13T02:06:18.541Z,-7.10
2022-12-13T02:08:47.336Z,-7.20
2022-12-13T02:11:15.552Z,-7.20
2022-12-13T02:13:44.882Z,-7.30
2022-12-13T02:16:22.568Z,-7.40
2022-12-13T02:19:00.433Z,-7.50
2022-12-13T02:21:34.286Z,-7.50
2022-12-13T02:24:21.566Z,-7.60
2022-12-13T02:26:55.692Z,-7.70
2022-12-13T02:29:37.019Z,-7.80
2022-12-13T02:32:09.603Z,-7.70
2022-12-13T02:34:39.836Z,-7.80
2022-12-13T02:37:17.503Z,-7.80
2022-12-13T02:39:48.633Z,-7.90
2022-12-13T02:42:21.310Z,-8.00
2022-12-13T02:44:51.614Z,-8.00
2022-12-13T02:47:22.826Z,-8.10
2022-12-13T02:49:52.522Z,-8.20
2022-12-13T02:52:22.448Z,-8.30
2022-12-13T02:54:50.748Z,-8.30
2022-12-13T02:57:30.157Z,-8.40
2022-12-13T02:59:59.233Z,-8.50
2022-12-13T03:02:34.084Z,-8.50
2022-12-13T03:05:22.958Z,-8.60
2022-12-13T03:07:55.150Z,-8.70
2022-12-13T03:10:25.444Z,-8.80
2022-12-13T03:13:13.598Z,-8.80
2022-12-13T03:15:45.216Z,-8.80
2022-12-13T03:18:16.574Z,-8.90
2022-12-13T03:20:46.889Z,-8.90
2022-12-13T03:23:15.002Z,-8.90
2022-12-13T03:25:43.098Z,-9.00
2022-12-13T03:28:11.031Z,-9.00
2022-12-13T03:30:39.183Z,-9.00
2022-12-13T03:33:07.293Z,-9.00
2022-12-13T03:35:44.850Z,-9.10
2022-12-13T03:38:22.637Z,-9.10
2022-12-13T03:40:52.362Z,-9.10
2022-12-13T03:43:22.427Z,-9.10
2022-12-13T03:45:50.842Z,-9.00
2022-12-13T03:48:21.671Z,-9.10
2022-12-13T03:50:52.236Z,-9.10
2022-12-13T03:53:23.172Z,-9.10
2022-12-13T03:56:02.944Z,-9.00
2022-12-13T03:58:34.793Z,-9.10
2022-12-13T04:01:06.077Z,-9.10
2022-12-13T04:03:34.123Z,-9.20
2022-12-13T04:06:03.406Z,-9.20
2022-12-13T04:08:31.339Z,-9.20
2022-12-13T04:10:59.497Z,-9.20
2022-12-13T04:13:35.448Z,-9.30
2022-12-13T04:16:03.778Z,-9.30
2022-12-13T04:18:31.737Z,-9.30
2022-12-13T04:20:59.629Z,-9.40
2022-12-13T04:23:28.898Z,-9.40
2022-12-13T04:25:56.859Z,-9.40
2022-12-13T04:28:24.889Z,-9.40
2022-12-13T04:30:54.115Z,-9.40
2022-12-13T04:33:22.424Z,-9.40
2022-12-13T04:35:50.947Z,-9.50
2022-12-13T04:38:18.957Z,-9.50
2022-12-13T04:40:48.430Z,-9.60
2022-12-13T04:43:16.538Z,-9.60
2022-12-13T04:45:44.591Z,-9.60
2022-12-13T04:48:13.757Z,-9.60
2022-12-13T04:51:00.826Z,-9.50
2022-12-13T04:53:30.072Z,-9.60
2022-12-13T04:55:59.468Z,-9.70
2022-12-13T04:58:28.640Z,-9.70
2022-12-13T05:00:57.212Z,-9.80
2022-12-13T05:03:25.198Z,-9.90
2022-12-13T05:05:53.111Z,-10.00
2022-12-13T05:08:21.096Z,-10.00
2022-12-13T05:10:49.141Z,-10.00
2022-12-13T05:13:18.484Z,-10.00
2022-12-13T05:15:50.690Z,-10.00
2022-12-13T05:18:21.639Z,-10.00
2022-12-13T05:20:50.956Z,-10.00
2022-12-13T05:23:22.322Z,-10.00
2022-12-13T05:25:51.297Z,-10.10
2022-12-13T05:28:26.965Z,-10.10
2022-12-13T05:30:57.892Z,-10.20
2022-12-13T05:33:26.058Z,-10.20
2022-12-13T05:35:59.757Z,-10.30
2022-12-13T05:38:29.667Z,-10.40
2022-12-13T05:40:57.650Z,-10.40
2022-12-13T05:43:43.087Z,-10.50
2022-12-13T05:46:12.751Z,-10.50
2022-12-13T05:48:41.036Z,-10.50
2022-12-13T05:51:09.772Z,-10.50
2022-12-13T05:53:39.338Z,-10.50
2022-12-13T05:56:07.505Z,-10.50
2022-12-13T05:58:37.832Z,-10.60
2022-12-13T06:01:07.135Z,-10.60
2022-12-13T06:03:35.117Z,-10.60
2022-12-13T06:06:03.387Z,-10.60
2022-12-13T06:08:31.609Z,-10.60
2022-12-13T06:11:11.758Z,-10.60
2022-12-13T06:13:43.984Z,-10.60
2022-12-13T06:16:22.221Z,-10.60
2022-12-13T06:18:55.883Z,-10.70
2022-12-13T06:21:27.293Z,-10.70
2022-12-13T06:23:55.950Z,-10.70
2022-12-13T06:26:23.886Z,-10.70
2022-12-13T06:28:53.297Z,-10.70
2022-12-13T06:31:21.289Z,-10.70
2022-12-13T06:33:49.326Z,-10.70
2022-12-13T06:36:17.258Z,-10.80
2022-12-13T06:38:45.212Z,-10.80
2022-12-13T06:41:14.420Z,-10.80
2022-12-13T06:43:43.323Z,-10.80
2022-12-13T06:46:13.122Z,-10.90
2022-12-13T06:48:41.894Z,-10.80
2022-12-13T06:51:10.046Z,-10.90
2022-12-13T06:53:38.877Z,-10.90
2022-12-13T06:56:07.477Z,-10.90
2022-12-13T06:58:35.596Z,-10.90
2022-12-13T07:01:03.955Z,-10.90
2022-12-13T07:03:33.712Z,-10.90
2022-12-13T07:06:04.533Z,-10.90
2022-12-13T07:08:32.800Z,-10.90
2022-12-13T07:11:00.754Z,-10.80
2022-12-13T07:13:29.000Z,-10.80
2022-12-13T07:16:01.049Z,-10.80
2022-12-13T07:18:29.416Z,-10.80
2022-12-13T07:20:58.697Z,-10.70
2022-12-13T07:23:26.598Z,-10.70
2022-12-13T07:25:54.962Z,-10.60
2022-12-13T07:28:23.083Z,-10.60
2022-12-13T07:30:51.053Z,-10.60
2022-12-13T07:33:22.662Z,-10.50
2022-12-13T07:35:55.355Z,-10.50
2022-12-13T07:38:24.917Z,-10.50
2022-12-13T07:40:52.854Z,-10.50
2022-12-13T07:43:21.054Z,-10.40
2022-12-13T07:45:49.595Z,-10.40
2022-12-13T07:48:17.965Z,-10.40
2022-12-13T07:50:46.106Z,-10.30
2022-12-13T07:53:22.769Z,-10.30
2022-12-13T07:55:52.065Z,-10.30
2022-12-13T07:58:19.983Z,-10.30
2022-12-13T08:00:47.936Z,-10.30
2022-12-13T08:03:24.473Z,-10.20
2022-12-13T08:05:59.431Z,-10.10
2022-12-13T08:08:30.816Z,-10.10
2022-12-13T08:11:04.404Z,-10.00
2022-12-13T08:13:32.332Z,-9.90
2022-12-13T08:16:01.268Z,-9.80
2022-12-13T08:18:29.507Z,-9.70
2022-12-13T08:21:01.321Z,-9.50
2022-12-13T08:23:31.074Z,-9.50
2022-12-13T08:25:59.406Z,-9.40
2022-12-13T08:28:29.195Z,-9.30
2022-12-13T08:30:57.437Z,-9.20
2022-12-13T08:33:25.520Z,-9.10
2022-12-13T08:35:53.781Z,-9.00
2022-12-13T08:38:22.797Z,-9.00
2022-12-13T08:40:51.476Z,-8.90
2022-12-13T08:43:24.575Z,-8.80
2022-12-13T08:45:54.450Z,-8.70
2022-12-13T08:48:29.489Z,-8.60
2022-12-13T08:51:00.770Z,-8.50
2022-12-13T08:53:31.758Z,-8.40
2022-12-13T08:56:11.559Z,-8.30
2022-12-13T08:58:40.121Z,-8.20
2022-12-13T09:01:10.125Z,-8.20
2022-12-13T09:03:38.990Z,-8.10
2022-12-13T09:06:07.462Z,-8.00
2022-12-13T09:08:35.566Z,-7.90
2022-12-13T09:11:10.833Z,-7.80
2022-12-13T09:13:48.787Z,-7.70
2022-12-13T09:16:23.782Z,-7.50
2022-12-13T09:18:55.525Z,-7.40
2022-12-13T09:21:31.859Z,-7.10
2022-12-13T09:24:01.454Z,-6.80
2022-12-13T09:26:38.470Z,-6.50
2022-12-13T09:29:11.163Z,-6.20
2022-12-13T09:31:41.422Z,-6.00
2022-12-13T09:34:10.195Z,-5.70
2022-12-13T09:36:38.535Z,-5.50
2022-12-13T09:39:06.467Z,-5.40
2022-12-13T09:41:40.951Z,-5.20
2022-12-13T09:44:31.521Z,-5.00
2022-12-13T09:47:13.405Z,-4.80
2022-12-13T09:49:43.027Z,-4.60
2022-12-13T09:52:22.644Z,-4.50
2022-12-13T09:54:51.617Z,-4.40
2022-12-13T09:57:32.021Z,-4.30
2022-12-13T10:00:02.520Z,-4.10
2022-12-13T10:02:33.674Z,-4.00
2022-12-13T10:05:21.879Z,-3.90
2022-12-13T10:07:53.671Z,-3.70
2022-12-13T10:10:21.730Z,-3.50
2022-12-13T10:12:51.470Z,-3.20
2022-12-13T10:15:22.266Z,-2.90
2022-12-13T10:17:55.210Z,-2.20
2022-12-13T10:20:26.193Z,-1.50
2022-12-13T10:23:30.028Z,-1.20
2022-12-13T10:25:50.837Z,-0.70
2022-12-13T10:28:20.773Z,-0.40
2022-12-13T10:30:48.715Z,0.30
2022-12-13T10:33:24.057Z,1.50
2022-12-13T10:36:06.003Z,0.70
2022-12-13T10:38:36.742Z,-0.10
2022-12-13T10:41:04.967Z,-0.50
2022-12-13T10:43:33.341Z,-0.70
2022-12-13T10:46:02.475Z,-0.50
2022-12-13T10:48:38.430Z,-0.60
2022-12-13T10:51:08.756Z,-0.80
2022-12-13T10:53:43.778Z,-0.90
2022-12-13T10:56:22.955Z,-0.90
2022-12-13T10:58:53.615Z,-1.00
2022-12-13T11:01:22.500Z,-1.10
2022-12-13T11:04:01.905Z,-1.10
2022-12-13T11:06:43.683Z,-1.20
2022-12-13T11:09:22.993Z,-1.30
2022-12-13T11:11:51.976Z,-1.40
2022-12-13T11:14:32.001Z,-1.40
2022-12-13T11:17:02.026Z,-1.40
2022-12-13T11:19:34.991Z,-1.50
2022-12-13T11:22:03.017Z,-1.50
2022-12-13T11:24:32.330Z,-1.50
2022-12-13T11:27:02.344Z,-1.60
2022-12-13T11:29:39.370Z,-1.50
2022-12-13T11:32:22.915Z,-1.60
2022-12-13T11:34:58.649Z,-1.60
2022-12-13T11:37:29.752Z,-1.60
2022-12-13T11:40:01.475Z,-1.60
2022-12-13T11:42:33.151Z,-1.60
2022-12-13T11:45:05.142Z,-1.50
2022-12-13T11:47:37.304Z,-1.60
2022-12-13T11:50:20.513Z,-1.60
2022-12-13T11:53:14.742Z,-1.60
2022-12-13T11:55:45.686Z,-1.50
2022-12-13T11:58:16.537Z,-1.50
2022-12-13T12:00:49.696Z,-1.50
2022-12-13T12:03:19.679Z,-1.60
2022-12-13T12:05:55.789Z,-1.60
2022-12-13T12:08:43.102Z,-1.60
2022-12-13T12:11:14.668Z,-1.50
2022-12-13T12:13:51.582Z,-1.40
2022-12-13T12:16:28.101Z,-1.40
2022-12-13T12:18:56.165Z,-1.40
2022-12-13T12:22:05.023Z,-1.40
2022-12-13T12:24:28.725Z,-1.30
2022-12-13T12:27:00.002Z,-1.20
2022-12-13T12:29:40.853Z,-1.20
2022-12-13T12:32:13.064Z,-1.10
2022-12-13T12:34:46.818Z,-1.00
2022-12-13T12:37:20.143Z,-0.80
2022-12-13T12:39:56.910Z,-0.70
2022-12-13T12:42:50.227Z,-0.70
2022-12-13T12:45:55.335Z,-0.50
2022-12-13T12:51:17.726Z,-0.30
2022-12-13T12:53:48.357Z,-0.40
2022-12-13T12:56:24.862Z,-0.40
2022-12-13T12:58:55.547Z,-0.60
2022-12-13T13:01:34.715Z,-0.60
2022-12-13T13:04:07.605Z,-0.50
2022-12-13T13:06:36.515Z,-0.30
2022-12-13T13:09:07.543Z,0.40
2022-12-13T13:11:43.053Z,1.10
2022-12-13T13:14:26.387Z,1.90
2022-12-13T13:16:55.773Z,2.60
2022-12-13T13:19:39.883Z,3.10
2022-12-13T13:22:31.101Z,3.60
2022-12-13T13:25:14.789Z,4.70
2022-12-13T13:27:44.042Z,5.30
2022-12-13T13:30:17.682Z,5.80
2022-12-13T13:32:45.550Z,6.50
2022-12-13T13:35:31.386Z,7.00
2022-12-13T13:37:59.384Z,7.50
2022-12-13T13:40:31.599Z,7.70
2022-12-13T13:43:04.756Z,7.60
2022-12-13T13:45:53.960Z,7.40
2022-12-13T13:48:26.594Z,6.90
2022-12-13T13:51:21.450Z,6.40
2022-12-13T13:54:14.530Z,5.70
2022-12-13T13:56:51.919Z,4.90
2022-12-13T13:59:33.777Z,4.10
2022-12-13T14:02:21.023Z,3.60
2022-12-13T14:05:11.236Z,3.00
2022-12-13T14:07:54.958Z,2.50
2022-12-13T14:10:30.434Z,2.10
2022-12-13T14:13:19.057Z,1.80
2022-12-13T14:16:04.754Z,1.60
2022-12-13T14:18:56.283Z,1.50
2022-12-13T14:21:30.278Z,1.30
2022-12-13T14:24:04.571Z,0.80
2022-12-13T14:26:39.139Z,0.20
2022-12-13T14:29:12.031Z,-0.30
2022-12-13T14:31:41.621Z,-0.70
2022-12-13T14:34:17.200Z,-1.10
2022-12-13T14:36:55.184Z,-1.30
2022-12-13T14:39:25.007Z,-1.60
2022-12-13T14:41:56.986Z,-2.00
2022-12-13T14:44:26.376Z,-2.30
2022-12-13T14:46:55.725Z,-2.50
2022-12-13T14:49:25.275Z,-2.70
2022-12-13T14:52:01.225Z,-2.90
2022-12-13T14:54:31.315Z,-3.10
2022-12-13T14:57:00.321Z,-3.20
2022-12-13T14:59:28.807Z,-3.40
2022-12-13T15:01:58.031Z,-3.60
2022-12-13T15:04:30.427Z,-3.80
2022-12-13T15:07:01.902Z,-3.90
2022-12-13T15:09:30.841Z,-4.10
2022-12-13T15:12:14.671Z,-4.30
2022-12-13T15:14:51.698Z,-4.50
2022-12-13T15:17:26.321Z,-4.70
2022-12-13T15:19:54.280Z,-4.80
2022-12-13T15:22:29.420Z,-5.00
2022-12-13T15:24:58.390Z,-5.10
2022-12-13T15:27:26.941Z,-5.20
2022-12-13T15:29:55.148Z,-5.30
2022-12-13T15:32:24.159Z,-5.40
2022-12-13T15:34:52.754Z,-5.40
2022-12-13T15:37:29.506Z,-5.50
2022-12-13T15:40:00.326Z,-5.50
2022-12-13T15:42:30.474Z,-5.50
2022-12-13T15:44:59.639Z,-5.50
2022-12-13T15:47:29.261Z,-5.50
2022-12-13T15:49:59.000Z,-5.40
2022-12-13T15:52:30.757Z,-5.40
2022-12-13T15:54:59.607Z,-5.40
2022-12-13T15:57:28.854Z,-5.40
2022-12-13T16:00:04.834Z,-5.50
2022-12-13T16:02:32.768Z,-5.40
2022-12-13T16:05:06.568Z,-5.40
2022-12-13T16:07:38.062Z,-5.40
2022-12-13T16:10:07.086Z,-5.40
2022-12-13T16:12:39.727Z,-5.40
2022-12-13T16:15:20.423Z,-5.40
2022-12-13T16:17:59.546Z,-5.40
2022-12-13T16:20:28.186Z,-5.40
2022-12-13T16:22:59.688Z,-5.30
2022-12-13T16:25:28.031Z,-5.40
2022-12-13T16:27:55.953Z,-5.40
2022-12-13T16:30:25.199Z,-5.40
2022-12-13T16:33:18.084Z,-5.30
2022-12-13T16:35:41.620Z,-5.30
2022-12-13T16:38:12.050Z,-5.30
2022-12-13T16:40:55.479Z,-5.30
2022-12-13T16:43:31.158Z,-5.30
2022-12-13T16:47:12.941Z,-5.40
2022-12-13T16:48:51.954Z,-5.30
2022-12-13T16:51:20.023Z,-5.30
2022-12-13T16:53:51.628Z,-5.30
2022-12-13T16:56:21.827Z,-5.30
2022-12-13T16:58:50.854Z,-5.30
2022-12-13T17:01:20.637Z,-5.30
2022-12-13T17:03:49.044Z,-5.30
2022-12-13T17:06:19.866Z,-5.30
2022-12-13T17:08:49.205Z,-5.30
2022-12-13T17:11:18.438Z,-5.30
2022-12-13T17:13:48.210Z,-5.30
2022-12-13T17:16:16.516Z,-5.30
2022-12-13T17:18:44.486Z,-5.30
2022-12-13T17:21:12.401Z,-5.30
2022-12-13T17:23:40.749Z,-5.30
2022-12-13T17:26:10.662Z,-5.40
2022-12-13T17:28:38.921Z,-5.50
2022-12-13T17:31:07.498Z,-5.60
2022-12-13T17:33:36.327Z,-5.70
2022-12-13T17:36:04.403Z,-5.80
2022-12-13T17:38:32.435Z,-5.90
2022-12-13T17:41:00.845Z,-6.00
2022-12-13T17:43:34.860Z,-6.10
2022-12-13T17:46:04.410Z,-6.10
2022-12-13T17:48:39.612Z,-6.10
2022-12-13T17:51:09.306Z,-6.20
2022-12-13T17:53:38.021Z,-6.20
2022-12-13T17:56:07.881Z,-6.20
2022-12-13T17:58:37.375Z,-6.10
2022-12-13T18:01:11.487Z,-6.10
2022-12-13T18:03:39.533Z,-6.10
2022-12-13T18:06:08.472Z,-6.00
2022-12-13T18:08:36.968Z,-6.00
2022-12-13T18:11:35.628Z,-5.90
2022-12-13T18:13:55.388Z,-5.90
2022-12-13T18:16:25.920Z,-5.90
2022-12-13T18:18:57.290Z,-5.90
2022-12-13T18:21:25.922Z,-5.90
2022-12-13T18:23:54.936Z,-5.80
2022-12-13T18:26:24.810Z,-5.80
2022-12-13T18:28:54.277Z,-5.90
2022-12-13T18:31:23.293Z,-5.90
2022-12-13T18:33:52.208Z,-6.00
2022-12-13T18:36:20.940Z,-6.00
2022-12-13T18:38:48.875Z,-6.00
2022-12-13T18:41:17.604Z,-6.00
2022-12-13T18:43:46.105Z,-6.00
2022-12-13T18:46:17.627Z,-6.00
2022-12-13T18:48:46.384Z,-6.10
2022-12-13T18:51:14.463Z,-6.10
2022-12-13T18:53:42.434Z,-6.10
2022-12-13T18:56:18.341Z,-6.10
2022-12-13T18:58:48.121Z,-6.10
2022-12-13T19:01:17.934Z,-6.10
2022-12-13T19:03:46.805Z,-6.10
2022-12-13T19:06:16.670Z,-6.10
2022-12-13T19:08:44.624Z,-6.10
2022-12-13T19:11:12.535Z,-6.10
2022-12-13T19:13:41.141Z,-6.10
2022-12-13T19:16:10.107Z,-6.10
2022-12-13T19:18:39.447Z,-6.10
2022-12-13T19:21:08.161Z,-6.20
2022-12-13T19:23:36.092Z,-6.20
2022-12-13T19:26:07.283Z,-6.20
2022-12-13T19:28:35.623Z,-6.20
2022-12-13T19:31:04.327Z,-6.10
2022-12-13T19:33:32.565Z,-6.10
2022-12-13T19:36:02.544Z,-6.20
2022-12-13T19:38:30.639Z,-6.20
2022-12-13T19:40:58.579Z,-6.20
2022-12-13T19:43:27.159Z,-6.20
2022-12-13T19:45:55.498Z,-6.20
2022-12-13T19:48:23.415Z,-6.20
2022-12-13T19:50:51.614Z,-6.10
2022-12-13T19:53:20.887Z,-6.10
2022-12-13T19:55:48.934Z,-6.10
2022-12-13T19:58:16.889Z,-6.10
2022-12-13T20:00:45.368Z,-6.00
2022-12-13T20:03:13.368Z,-6.00
2022-12-13T20:05:45.602Z,-6.00
2022-12-13T20:08:13.885Z,-6.00
2022-12-13T20:10:43.283Z,-6.00
2022-12-13T20:13:11.245Z,-5.90
2022-12-13T20:15:39.535Z,-5.90
2022-12-13T20:18:07.627Z,-5.90
2022-12-13T20:21:02.523Z,-5.80
2022-12-13T20:23:23.922Z,-5.80
2022-12-13T20:26:01.082Z,-5.80
2022-12-13T20:28:29.377Z,-5.70
2022-12-13T20:31:04.155Z,-5.70
2022-12-13T20:33:32.484Z,-5.70
2022-12-13T20:36:23.685Z,-5.70
2022-12-13T20:38:52.618Z,-5.60
2022-12-13T20:41:21.944Z,-5.60
2022-12-13T20:43:52.047Z,-5.60
2022-12-13T20:46:20.253Z,-5.50
2022-12-13T20:48:48.898Z,-5.50
2022-12-13T20:51:17.779Z,-5.50
2022-12-13T20:53:46.875Z,-5.40
2022-12-13T20:56:15.750Z,-5.40
2022-12-13T20:58:45.643Z,-5.40
2022-12-13T21:01:15.302Z,-5.30
2022-12-13T21:03:43.705Z,-5.40
2022-12-13T21:06:11.808Z,-5.40
2022-12-13T21:08:55.322Z,-5.30
2022-12-13T21:11:27.544Z,-5.20
2022-12-13T21:14:03.631Z,-5.20
2022-12-13T21:16:37.502Z,-5.20
2022-12-13T21:19:06.764Z,-5.20
2022-12-13T21:21:35.047Z,-5.10
2022-12-13T21:24:04.907Z,-5.10
2022-12-13T21:26:35.814Z,-5.10
2022-12-13T21:29:06.827Z,-5.10
2022-12-13T21:31:35.695Z,-5.00
2022-12-13T21:34:03.844Z,-4.90
2022-12-13T21:36:32.786Z,-4.90
2022-12-13T21:39:01.532Z,-4.90
2022-12-13T21:41:29.726Z,-4.90
2022-12-13T21:43:58.705Z,-4.90
2022-12-13T21:47:02.933Z,-4.90
2022-12-13T21:49:18.799Z,-4.90
2022-12-13T21:51:48.316Z,-4.90
2022-12-13T21:54:17.796Z,-4.90
2022-12-13T21:57:03.171Z,-4.80
2022-12-13T21:59:31.837Z,-4.80
2022-12-13T22:02:15.539Z,-4.80
2022-12-13T22:04:44.471Z,-4.70
2022-12-13T22:07:13.215Z,-4.70
2022-12-13T22:09:41.296Z,-4.70
2022-12-13T22:12:09.825Z,-4.60
2022-12-13T22:14:38.165Z,-4.60
2022-12-13T22:17:07.467Z,-4.60
2022-12-13T22:19:35.356Z,-4.60
2022-12-13T22:22:03.505Z,-4.50
2022-12-13T22:24:31.420Z,-4.50
2022-12-13T22:26:59.390Z,-4.50
2022-12-13T22:29:27.457Z,-4.50
2022-12-13T22:31:55.412Z,-4.60
2022-12-13T22:34:24.757Z,-4.60
2022-12-13T22:36:52.971Z,-4.60
2022-12-13T22:39:22.718Z,-4.50
2022-12-13T22:41:51.730Z,-4.50
2022-12-13T22:44:20.545Z,-4.50
2022-12-13T22:46:48.715Z,-4.50
2022-12-13T22:49:16.662Z,-4.50
2022-12-13T22:51:45.991Z,-4.50
2022-12-13T22:54:13.889Z,-4.40
2022-12-13T22:56:41.879Z,-4.40
2022-12-13T22:59:09.989Z,-4.50
2022-12-13T23:01:38.766Z,-4.40
2022-12-13T23:04:07.096Z,-4.50
2022-12-13T23:06:36.313Z,-4.40
2022-12-13T23:09:06.502Z,-4.40
2022-12-13T23:12:03.881Z,-4.40
2022-12-13T23:14:32.840Z,-4.50
2022-12-13T23:17:01.292Z,-4.50
2022-12-13T23:19:50.168Z,-4.50
2022-12-13T23:22:18.157Z,-4.50
2022-12-13T23:24:47.447Z,-4.50
2022-12-13T23:27:15.661Z,-4.50
2022-12-13T23:29:43.689Z,-4.50
2022-12-13T23:32:11.679Z,-4.50
2022-12-13T23:34:39.825Z,-4.50
2022-12-13T23:37:07.919Z,-4.50
2022-12-13T23:39:35.821Z,-4.50
2022-12-13T23:42:05.465Z,-4.50
2022-12-13T23:44:33.754Z,-4.50
2022-12-13T23:47:01.827Z,-4.50
2022-12-13T23:49:29.872Z,-4.50
2022-12-13T23:51:57.820Z,-4.50
2022-12-13T23:54:25.813Z,-4.50
2022-12-13T23:56:53.948Z,-4.50
2022-12-13T23:59:25.868Z,-4.50
